createdAt,value
2023-04-16T00:00:04.031Z,101319.97
2023-04-16T00:02:33.874Z,101316.50
2023-04-16T00:05:04.200Z,101314.34
2023-04-16T00:07:33.722Z,101312.69
2023-04-16T00:10:03.212Z,101317.72
2023-04-16T00:12:32.742Z,101324.22
2023-04-16T00:15:04.809Z,101325.88
2023-04-16T00:17:34.279Z,101325.09
2023-04-16T00:20:03.630Z,101333.88
2023-04-16T00:22:33.019Z,101325.16
2023-04-16T00:25:02.465Z,101308.28
2023-04-16T00:27:31.908Z,101324.13
2023-04-16T00:30:03.845Z,101315.28
2023-04-16T00:32:33.576Z,101326.66
2023-04-16T00:35:03.120Z,101330.53
2023-04-16T00:37:33.270Z,101326.53
2023-04-16T00:40:02.868Z,101327.13
2023-04-16T00:42:32.253Z,101325.97
2023-04-16T00:45:04.197Z,101329.97
2023-04-16T00:47:33.929Z,101329.13
2023-04-16T00:50:03.466Z,101332.66
2023-04-16T00:52:34.188Z,101329.44
2023-04-16T00:55:03.888Z,101329.00
2023-04-16T00:57:33.320Z,101326.47
2023-04-16T01:00:05.456Z,101327.75
2023-04-16T01:02:37.153Z,101328.13
2023-04-16T01:05:07.643Z,101317.38
2023-04-16T01:07:36.980Z,101320.28
2023-04-16T01:10:06.967Z,101322.44
2023-04-16T01:12:36.400Z,101322.56
2023-04-16T01:15:14.078Z,101322.28
2023-04-16T01:17:43.460Z,101324.84
2023-04-16T01:20:13.319Z,101328.84
2023-04-16T01:22:45.460Z,101337.97
2023-04-16T01:25:17.283Z,101333.28
2023-04-16T01:27:46.667Z,101333.28
2023-04-16T01:30:16.040Z,101334.44
2023-04-16T01:32:45.436Z,101338.81
2023-04-16T01:35:14.896Z,101325.59
2023-04-16T01:37:46.894Z,101342.56
2023-04-16T01:40:16.573Z,101339.94
2023-04-16T01:42:46.102Z,101344.28
2023-04-16T01:45:15.797Z,101349.06
2023-04-16T01:47:45.485Z,101348.94
2023-04-16T01:50:14.907Z,101347.75
2023-04-16T01:52:47.120Z,101350.13
2023-04-16T01:55:16.550Z,101348.13
2023-04-16T01:57:45.916Z,101347.53
2023-04-16T02:00:15.633Z,101351.94
2023-04-16T02:02:45.223Z,101364.34
2023-04-16T02:05:14.663Z,101352.50
2023-04-16T02:07:46.774Z,101358.38
2023-04-16T02:10:16.240Z,101355.72
2023-04-16T02:12:45.709Z,101351.81
2023-04-16T02:15:15.966Z,101357.81
2023-04-16T02:17:46.747Z,101349.75
2023-04-16T02:20:17.814Z,101349.81
2023-04-16T02:22:49.807Z,101351.75
2023-04-16T02:25:19.603Z,101358.81
2023-04-16T02:27:48.976Z,101356.13
2023-04-16T02:30:18.405Z,101354.53
2023-04-16T02:32:47.870Z,101354.78
2023-04-16T02:35:17.254Z,101357.19
2023-04-16T02:37:49.251Z,101351.94
2023-04-16T02:40:18.894Z,101355.06
2023-04-16T02:42:48.393Z,101356.13
2023-04-16T02:45:18.099Z,101361.50
2023-04-16T02:47:47.498Z,101368.41
2023-04-16T02:50:17.047Z,101367.03
2023-04-16T02:52:49.065Z,101371.88
2023-04-16T02:55:18.414Z,101365.19
2023-04-16T02:57:47.817Z,101362.00
2023-04-16T03:00:17.573Z,101373.28
2023-04-16T03:02:46.971Z,101370.34
2023-04-16T03:05:16.324Z,101366.47
2023-04-16T03:07:46.208Z,101378.00
2023-04-16T03:10:18.356Z,101376.59
2023-04-16T03:12:47.701Z,101367.44
2023-04-16T03:15:17.021Z,101366.47
2023-04-16T03:17:46.441Z,101371.28
2023-04-16T03:20:17.372Z,101374.94
2023-04-16T03:22:46.698Z,101380.88
2023-04-16T03:25:18.647Z,101377.94
2023-04-16T03:27:48.041Z,101379.34
2023-04-16T03:30:18.562Z,101374.13
2023-04-16T03:32:47.927Z,101382.22
2023-04-16T03:35:17.397Z,101380.63
2023-04-16T03:37:46.733Z,101381.28
2023-04-16T03:40:19.157Z,101382.50
2023-04-16T03:42:48.480Z,101380.09
2023-04-16T03:45:17.846Z,101379.50
2023-04-16T03:47:48.763Z,101390.03
2023-04-16T03:50:18.247Z,101388.72
2023-04-16T03:52:49.508Z,101387.28
2023-04-16T03:55:21.563Z,101394.50
2023-04-16T03:57:50.862Z,101388.78
2023-04-16T04:00:20.326Z,101388.91
2023-04-16T04:02:49.868Z,101383.09
2023-04-16T04:05:19.472Z,101388.25
2023-04-16T04:07:48.795Z,101397.47
2023-04-16T04:10:20.894Z,101389.19
2023-04-16T04:12:50.213Z,101394.50
2023-04-16T04:15:19.691Z,101393.44
2023-04-16T04:17:49.113Z,101398.22
2023-04-16T04:20:18.562Z,101399.22
2023-04-16T04:22:47.904Z,101404.50
2023-04-16T04:25:17.258Z,101403.00
2023-04-16T04:27:49.383Z,101404.03
2023-04-16T04:30:18.971Z,101409.88
2023-04-16T04:32:48.376Z,101405.94
2023-04-16T04:35:17.808Z,101405.22
2023-04-16T04:37:47.382Z,101411.72
2023-04-16T04:40:16.892Z,101411.53
2023-04-16T04:42:48.856Z,101414.13
2023-04-16T04:45:18.448Z,101413.72
2023-04-16T04:47:47.886Z,101410.84
2023-04-16T04:50:17.689Z,101415.81
2023-04-16T04:52:47.104Z,101415.44
2023-04-16T04:55:16.534Z,101422.69
2023-04-16T04:57:46.050Z,101425.53
2023-04-16T05:00:18.206Z,101423.25
2023-04-16T05:02:47.752Z,101432.50
2023-04-16T05:05:17.210Z,101423.91
2023-04-16T05:07:47.272Z,101419.72
2023-04-16T05:10:17.021Z,101433.88
2023-04-16T05:12:48.247Z,101431.88
2023-04-16T05:15:21.156Z,101435.41
2023-04-16T05:17:50.545Z,101436.47
2023-04-16T05:20:20.080Z,101435.28
2023-04-16T05:22:49.465Z,101445.63
2023-04-16T05:25:18.807Z,101441.69
2023-04-16T05:27:53.889Z,101450.38
2023-04-16T05:30:25.817Z,101448.34
2023-04-16T05:32:55.178Z,101457.97
2023-04-16T05:35:24.699Z,101460.47
2023-04-16T05:37:54.046Z,101457.53
2023-04-16T05:40:23.674Z,101461.63
2023-04-16T05:42:53.012Z,101462.09
2023-04-16T05:45:27.477Z,101463.97
2023-04-16T05:47:57.448Z,101474.44
2023-04-16T05:50:26.838Z,101469.47
2023-04-16T05:52:58.199Z,101472.19
2023-04-16T05:55:27.659Z,101475.06
2023-04-16T05:57:57.157Z,101479.59
2023-04-16T06:00:29.141Z,101488.25
2023-04-16T06:02:58.856Z,101482.50
2023-04-16T06:05:29.477Z,101490.25
2023-04-16T06:07:59.032Z,101482.69
2023-04-16T06:10:28.373Z,101492.78
2023-04-16T06:12:57.700Z,101488.03
2023-04-16T06:15:29.622Z,101490.44
2023-04-16T06:18:00.756Z,101491.66
2023-04-16T06:20:30.786Z,101500.28
2023-04-16T06:23:00.777Z,101496.72
2023-04-16T06:25:30.122Z,101499.78
2023-04-16T06:27:59.477Z,101497.38
2023-04-16T06:30:31.433Z,101505.22
2023-04-16T06:33:01.164Z,101502.53
2023-04-16T06:35:30.495Z,101509.72
2023-04-16T06:37:59.815Z,101515.66
2023-04-16T06:40:29.373Z,101511.53
2023-04-16T06:42:58.820Z,101520.16
2023-04-16T06:45:30.891Z,101520.84
2023-04-16T06:48:03.395Z,101519.34
2023-04-16T06:50:32.840Z,101518.53
2023-04-16T06:53:02.235Z,101520.56
2023-04-16T06:55:31.553Z,101529.88
2023-04-16T06:58:00.909Z,101530.69
2023-04-16T07:00:32.875Z,101525.59
2023-04-16T07:03:04.107Z,101535.69
2023-04-16T07:05:33.643Z,101543.66
2023-04-16T07:08:05.054Z,101547.25
2023-04-16T07:10:34.475Z,101550.63
2023-04-16T07:13:04.188Z,101547.94
2023-04-16T07:15:36.245Z,101545.34
2023-04-16T07:18:05.827Z,101548.00
2023-04-16T07:20:36.278Z,101550.88
2023-04-16T07:23:05.955Z,101552.50
2023-04-16T07:25:35.288Z,101554.38
2023-04-16T07:28:05.261Z,101553.13
2023-04-16T07:30:37.316Z,101555.91
2023-04-16T07:33:07.088Z,101559.28
2023-04-16T07:35:36.542Z,101549.03
2023-04-16T07:38:06.048Z,101556.41
2023-04-16T07:40:36.054Z,101561.06
2023-04-16T07:43:05.388Z,101557.59
2023-04-16T07:45:37.394Z,101558.50
2023-04-16T07:48:06.818Z,101565.47
2023-04-16T07:50:36.195Z,101558.66
2023-04-16T07:53:07.866Z,101571.75
2023-04-16T07:55:37.293Z,101573.53
2023-04-16T07:58:07.387Z,101581.75
2023-04-16T08:00:39.576Z,101569.16
2023-04-16T08:03:09.076Z,101578.25
2023-04-16T08:05:38.534Z,101584.44
2023-04-16T08:08:08.295Z,101580.03
2023-04-16T08:10:37.690Z,101580.00
2023-04-16T08:13:07.040Z,101586.78
2023-04-16T08:15:39.009Z,101587.84
2023-04-16T08:18:12.950Z,101587.53
2023-04-16T08:20:43.072Z,101587.91
2023-04-16T08:23:12.414Z,101598.84
2023-04-16T08:25:41.720Z,101594.81
2023-04-16T08:28:11.116Z,101599.34
2023-04-16T08:30:43.062Z,101599.09
2023-04-16T08:33:12.878Z,101608.84
2023-04-16T08:35:42.266Z,101595.19
2023-04-16T08:38:11.597Z,101614.03
2023-04-16T08:40:44.427Z,101609.84
2023-04-16T08:43:15.807Z,101605.34
2023-04-16T08:45:50.689Z,101624.13
2023-04-16T08:48:22.476Z,101627.00
2023-04-16T08:50:55.800Z,101623.41
2023-04-16T08:53:32.702Z,101621.97
2023-04-16T08:56:06.457Z,101623.84
2023-04-16T08:58:36.805Z,101629.56
2023-04-16T09:01:09.509Z,101630.41
2023-04-16T09:03:39.433Z,101630.78
2023-04-16T09:06:10.239Z,101633.22
2023-04-16T09:08:39.898Z,101637.97
2023-04-16T09:11:09.648Z,101631.34
2023-04-16T09:13:40.426Z,101637.56
2023-04-16T09:16:13.775Z,101642.28
2023-04-16T09:18:43.393Z,101636.50
2023-04-16T09:21:13.288Z,101637.78
2023-04-16T09:23:43.569Z,101639.19
2023-04-16T09:26:12.966Z,101645.84
2023-04-16T09:28:43.585Z,101646.84
2023-04-16T09:31:16.963Z,101654.28
2023-04-16T09:33:47.420Z,101654.22
2023-04-16T09:36:16.973Z,101652.00
2023-04-16T09:38:51.557Z,101656.13
2023-04-16T09:41:21.693Z,101660.63
2023-04-16T09:43:59.593Z,101644.72
2023-04-16T09:46:37.788Z,101658.00
2023-04-16T09:49:12.717Z,101660.88
2023-04-16T09:51:44.720Z,101662.50
2023-04-16T09:54:14.577Z,101657.94
2023-04-16T09:56:45.241Z,101662.81
2023-04-16T09:59:19.936Z,101659.94
2023-04-16T10:01:57.272Z,101664.28
2023-04-16T10:04:50.755Z,101664.72
2023-04-16T10:07:21.130Z,101669.66
2023-04-16T10:09:52.768Z,101672.75
2023-04-16T10:12:23.176Z,101675.44
2023-04-16T10:14:52.625Z,101672.97
2023-04-16T10:17:24.707Z,101684.09
2023-04-16T10:19:54.269Z,101680.94
2023-04-16T10:22:23.601Z,101679.84
2023-04-16T10:24:54.582Z,101689.38
2023-04-16T10:27:24.304Z,101688.34
2023-04-16T10:29:54.005Z,101690.38
2023-04-16T10:32:28.779Z,101691.50
2023-04-16T10:34:58.434Z,101691.25
2023-04-16T10:37:33.464Z,101690.19
2023-04-16T10:40:02.901Z,101691.44
2023-04-16T10:42:32.279Z,101703.44
2023-04-16T10:45:03.969Z,101695.72
2023-04-16T10:47:43.318Z,101695.09
2023-04-16T10:50:18.711Z,101694.94
2023-04-16T10:52:48.563Z,101688.03
2023-04-16T10:55:20.069Z,101695.84
2023-04-16T10:57:54.052Z,101691.63
2023-04-16T11:00:25.429Z,101698.06
2023-04-16T11:02:58.472Z,101700.22
2023-04-16T11:05:47.885Z,101693.53
2023-04-16T11:08:18.062Z,101688.00
2023-04-16T11:10:47.485Z,101695.13
2023-04-16T11:13:19.967Z,101694.19
2023-04-16T11:15:51.245Z,101704.03
2023-04-16T11:18:24.906Z,101687.09
2023-04-16T11:20:54.413Z,101698.22
2023-04-16T11:23:23.795Z,101701.91
2023-04-16T11:25:57.226Z,101708.69
2023-04-16T11:28:36.889Z,101705.72
2023-04-16T11:31:13.701Z,101701.13
2023-04-16T11:33:46.253Z,101710.25
2023-04-16T11:36:15.998Z,101708.19
2023-04-16T11:38:45.871Z,101707.31
2023-04-16T11:41:24.557Z,101706.81
2023-04-16T11:43:54.683Z,101705.25
2023-04-16T11:46:27.739Z,101713.19
2023-04-16T11:49:00.073Z,101708.97
2023-04-16T11:51:29.633Z,101711.59
2023-04-16T11:53:58.992Z,101711.50
2023-04-16T11:56:31.091Z,101722.44
2023-04-16T11:59:13.831Z,101723.84
2023-04-16T12:01:45.813Z,101720.19
2023-04-16T12:04:20.262Z,101728.28
2023-04-16T12:07:08.042Z,101730.19
2023-04-16T12:09:40.576Z,101727.75
2023-04-16T12:12:28.254Z,101733.72
2023-04-16T12:14:59.743Z,101737.91
2023-04-16T12:17:29.260Z,101736.13
2023-04-16T12:20:04.025Z,101731.31
2023-04-16T12:22:36.774Z,101736.72
2023-04-16T12:25:08.521Z,101734.25
2023-04-16T12:27:46.431Z,101736.50
2023-04-16T12:30:16.975Z,101734.09
2023-04-16T12:32:49.123Z,101739.25
2023-04-16T12:35:37.111Z,101741.88
2023-04-16T12:38:06.544Z,101738.41
2023-04-16T12:40:36.244Z,101738.38
2023-04-16T12:43:05.711Z,101749.34
2023-04-16T12:45:35.015Z,101745.84
2023-04-16T12:48:04.372Z,101737.00
2023-04-16T12:50:33.800Z,101739.84
2023-04-16T12:53:06.383Z,101745.53
2023-04-16T12:55:35.852Z,101750.31
2023-04-16T12:58:05.165Z,101746.97
2023-04-16T13:00:34.476Z,101746.81
2023-04-16T13:03:03.882Z,101743.44
2023-04-16T13:05:33.298Z,101751.34
2023-04-16T13:08:05.448Z,101737.31
2023-04-16T13:10:34.796Z,101741.78
2023-04-16T13:13:04.693Z,101740.25
2023-04-16T13:15:34.030Z,101742.69
2023-04-16T13:18:03.413Z,101749.13
2023-04-16T13:20:32.781Z,101748.09
2023-04-16T13:23:05.047Z,101754.53
2023-04-16T13:25:34.695Z,101758.00
2023-04-16T13:28:04.059Z,101759.50
2023-04-16T13:30:33.607Z,101762.66
2023-04-16T13:33:03.079Z,101761.97
2023-04-16T13:35:32.665Z,101762.34
2023-04-16T13:38:01.984Z,101758.22
2023-04-16T13:40:35.207Z,101761.16
2023-04-16T13:43:06.616Z,101757.06
2023-04-16T13:45:36.986Z,101760.34
2023-04-16T13:48:06.802Z,101761.44
2023-04-16T13:50:36.148Z,101764.72
2023-04-16T13:53:05.499Z,101767.31
2023-04-16T13:55:37.667Z,101761.16
2023-04-16T13:58:07.294Z,101762.19
2023-04-16T14:00:41.961Z,101766.19
2023-04-16T14:03:11.423Z,101755.53
2023-04-16T14:05:41.381Z,101757.63
2023-04-16T14:08:11.128Z,101756.59
2023-04-16T14:10:43.142Z,101764.09
2023-04-16T14:13:13.454Z,101763.34
2023-04-16T14:15:42.820Z,101763.50
2023-04-16T14:18:12.149Z,101760.44
2023-04-16T14:20:42.374Z,101760.84
2023-04-16T14:23:12.677Z,101746.34
2023-04-16T14:25:44.572Z,101756.91
2023-04-16T14:28:15.632Z,101760.44
2023-04-16T14:30:45.181Z,101762.66
2023-04-16T14:33:14.496Z,101761.03
2023-04-16T14:35:43.897Z,101762.06
2023-04-16T14:38:13.988Z,101767.97
2023-04-16T14:40:45.879Z,101764.09
2023-04-16T14:43:15.312Z,101763.81
2023-04-16T14:45:44.694Z,101763.72
2023-04-16T14:48:14.128Z,101763.81
2023-04-16T14:50:44.119Z,101763.44
2023-04-16T14:53:14.291Z,101761.03
2023-04-16T14:55:46.249Z,101761.38
2023-04-16T14:58:15.746Z,101775.00
2023-04-16T15:00:45.082Z,101762.59
2023-04-16T15:03:15.117Z,101765.03
2023-04-16T15:05:44.742Z,101770.09
2023-04-16T15:08:14.045Z,101766.94
2023-04-16T15:10:46.332Z,101767.66
2023-04-16T15:13:15.717Z,101766.50
2023-04-16T15:15:45.140Z,101770.59
2023-04-16T15:18:14.483Z,101768.72
2023-04-16T15:20:43.826Z,101763.03
2023-04-16T15:23:13.210Z,101766.03
2023-04-16T15:25:42.525Z,101760.34
2023-04-16T15:28:14.536Z,101765.94
2023-04-16T15:30:44.413Z,101767.88
2023-04-16T15:33:14.704Z,101762.03
2023-04-16T15:35:44.157Z,101767.16
2023-04-16T15:38:13.774Z,101771.00
2023-04-16T15:40:43.858Z,101765.41
2023-04-16T15:43:16.283Z,101772.25
2023-04-16T15:45:45.818Z,101773.69
2023-04-16T15:48:15.169Z,101780.44
2023-04-16T15:50:44.623Z,101781.81
2023-04-16T15:53:14.056Z,101777.66
2023-04-16T15:55:45.492Z,101784.84
2023-04-16T15:58:17.700Z,101782.53
2023-04-16T16:00:49.934Z,101784.72
2023-04-16T16:03:20.617Z,101789.47
2023-04-16T16:05:50.797Z,101792.16
2023-04-16T16:08:20.836Z,101785.28
2023-04-16T16:10:50.193Z,101786.50
2023-04-16T16:13:22.162Z,101795.59
2023-04-16T16:15:51.478Z,101787.78
2023-04-16T16:18:22.087Z,101788.03
2023-04-16T16:20:53.023Z,101788.00
2023-04-16T16:23:22.695Z,101788.00
2023-04-16T16:25:53.172Z,101791.97
2023-04-16T16:28:25.275Z,101790.63
2023-04-16T16:30:55.836Z,101785.00
2023-04-16T16:33:25.402Z,101797.50
2023-04-16T16:35:54.733Z,101790.56
2023-04-16T16:38:24.589Z,101788.31
2023-04-16T16:40:53.927Z,101790.38
2023-04-16T16:43:25.914Z,101797.28
2023-04-16T16:45:55.284Z,101798.44
2023-04-16T16:48:24.653Z,101800.56
2023-04-16T16:50:54.033Z,101801.38
2023-04-16T16:53:23.368Z,101794.22
2023-04-16T16:55:52.700Z,101811.09
2023-04-16T16:58:22.039Z,101806.59
2023-04-16T17:00:54.164Z,101817.34
2023-04-16T17:03:23.621Z,101813.19
2023-04-16T17:05:53.093Z,101810.22
2023-04-16T17:08:22.446Z,101804.41
2023-04-16T17:10:51.824Z,101813.22
2023-04-16T17:13:21.850Z,101818.34
2023-04-16T17:15:53.772Z,101806.59
2023-04-16T17:18:23.126Z,101822.97
2023-04-16T17:20:52.523Z,101827.91
2023-04-16T17:23:21.915Z,101820.72
2023-04-16T17:25:51.397Z,101821.63
2023-04-16T17:28:20.904Z,101832.94
2023-04-16T17:30:57.156Z,101827.63
2023-04-16T17:33:26.626Z,101824.50
2023-04-16T17:35:55.959Z,101831.25
2023-04-16T17:38:25.502Z,101835.44
2023-04-16T17:40:56.976Z,101837.06
2023-04-16T17:43:28.005Z,101838.22
2023-04-16T17:45:59.956Z,101849.03
2023-04-16T17:48:29.375Z,101848.06
2023-04-16T17:50:58.737Z,101851.16
2023-04-16T17:53:28.364Z,101848.22
2023-04-16T17:55:57.704Z,101853.34
2023-04-16T17:58:27.886Z,101863.78
2023-04-16T18:00:59.927Z,101859.44
2023-04-16T18:03:29.414Z,101868.84
2023-04-16T18:05:58.911Z,101871.81
2023-04-16T18:08:28.851Z,101877.78
2023-04-16T18:10:58.724Z,101877.91
2023-04-16T18:13:28.277Z,101881.53
2023-04-16T18:16:00.356Z,101884.06
2023-04-16T18:18:29.774Z,101888.22
2023-04-16T18:20:59.093Z,101892.25
2023-04-16T18:23:28.469Z,101889.06
2023-04-16T18:25:58.778Z,101891.53
2023-04-16T18:28:29.216Z,101896.16
2023-04-16T18:31:04.954Z,101903.66
2023-04-16T18:33:54.167Z,101909.72
2023-04-16T18:36:24.152Z,101906.97
2023-04-16T18:39:01.706Z,101906.88
2023-04-16T18:41:32.137Z,101908.66
2023-04-16T18:44:03.765Z,101915.44
2023-04-16T18:46:35.760Z,101910.75
2023-04-16T18:49:05.111Z,101921.59
2023-04-16T18:51:34.456Z,101924.78
2023-04-16T18:54:03.764Z,101931.31
2023-04-16T18:56:33.213Z,101927.72
2023-04-16T18:59:02.598Z,101920.25
2023-04-16T19:01:31.992Z,101928.34
2023-04-16T19:04:04.117Z,101921.25
2023-04-16T19:06:33.470Z,101928.44
2023-04-16T19:09:02.781Z,101934.34
2023-04-16T19:11:32.115Z,101931.97
2023-04-16T19:14:03.206Z,101935.16
2023-04-16T19:16:32.706Z,101944.88
2023-04-16T19:19:04.915Z,101942.00
2023-04-16T19:21:34.391Z,101944.59
2023-04-16T19:24:03.708Z,101946.84
2023-04-16T19:26:33.235Z,101942.38
2023-04-16T19:29:02.552Z,101940.38
2023-04-16T19:31:31.930Z,101946.47
2023-04-16T19:34:03.926Z,101949.88
2023-04-16T19:36:33.391Z,101948.16
2023-04-16T19:39:02.720Z,101952.56
2023-04-16T19:41:32.050Z,101948.44
2023-04-16T19:44:03.776Z,101947.72
2023-04-16T19:46:34.233Z,101954.28
2023-04-16T19:49:06.610Z,101951.41
2023-04-16T19:51:36.077Z,101953.28
2023-04-16T19:54:05.852Z,101954.91
2023-04-16T19:56:35.141Z,101944.97
2023-04-16T19:59:04.657Z,101953.03
2023-04-16T20:01:34.051Z,101955.31
2023-04-16T20:04:07.007Z,101949.53
2023-04-16T20:06:36.787Z,101947.72
2023-04-16T20:09:06.368Z,101955.75
2023-04-16T20:11:35.714Z,101951.66
2023-04-16T20:14:05.037Z,101952.28
2023-04-16T20:16:35.205Z,101957.91
2023-04-16T20:19:09.093Z,101952.28
2023-04-16T20:21:40.495Z,101956.63
2023-04-16T20:24:10.807Z,101958.69
2023-04-16T20:26:40.291Z,101958.69
2023-04-16T20:29:10.375Z,101962.22
2023-04-16T20:31:41.878Z,101955.03
2023-04-16T20:34:14.002Z,101960.59
2023-04-16T20:36:43.390Z,101955.44
2023-04-16T20:39:12.979Z,101952.72
2023-04-16T20:41:43.916Z,101952.75
2023-04-16T20:44:18.146Z,101953.38
2023-04-16T20:46:49.803Z,101966.63
2023-04-16T20:49:21.769Z,101956.09
2023-04-16T20:51:51.514Z,101968.88
2023-04-16T20:54:20.876Z,101956.88
2023-04-16T20:56:50.450Z,101968.28
2023-04-16T20:59:19.821Z,101967.66
2023-04-16T21:01:49.722Z,101968.28
2023-04-16T21:04:21.795Z,101970.53
2023-04-16T21:06:53.754Z,101966.81
2023-04-16T21:09:23.592Z,101971.34
2023-04-16T21:11:52.945Z,101971.41
2023-04-16T21:14:22.495Z,101969.44
2023-04-16T21:16:52.029Z,101972.84
2023-04-16T21:19:24.018Z,101969.03
2023-04-16T21:21:53.460Z,101974.63
2023-04-16T21:24:22.867Z,101977.50
2023-04-16T21:26:52.231Z,101977.72
2023-04-16T21:29:21.796Z,101980.00
2023-04-16T21:31:51.294Z,101983.94
2023-04-16T21:34:20.862Z,101987.47
2023-04-16T21:36:52.856Z,101993.91
2023-04-16T21:39:22.315Z,101981.06
2023-04-16T21:41:51.785Z,101980.41
2023-04-16T21:44:21.258Z,101982.28
2023-04-16T21:46:50.837Z,101978.31
2023-04-16T21:49:20.441Z,101982.09
2023-04-16T21:51:59.395Z,101982.69
2023-04-16T21:54:29.007Z,101994.09
2023-04-16T21:56:58.792Z,101985.78
2023-04-16T21:59:28.287Z,101982.09
2023-04-16T22:01:57.786Z,101994.28
2023-04-16T22:04:37.528Z,101996.97
2023-04-16T22:07:11.905Z,101996.78
2023-04-16T22:09:41.666Z,101999.06
2023-04-16T22:12:12.202Z,101991.19
2023-04-16T22:14:49.188Z,101995.72
2023-04-16T22:17:27.802Z,101997.56
2023-04-16T22:19:57.382Z,101994.28
2023-04-16T22:22:29.448Z,101989.69
2023-04-16T22:24:58.845Z,101994.66
2023-04-16T22:27:28.366Z,101992.19
2023-04-16T22:29:57.741Z,101997.38
2023-04-16T22:32:27.278Z,101992.19
2023-04-16T22:34:56.777Z,101997.19
2023-04-16T22:37:28.798Z,101998.88
2023-04-16T22:39:58.473Z,101999.66
2023-04-16T22:42:27.876Z,101994.47
2023-04-16T22:44:57.206Z,101995.09
2023-04-16T22:47:26.726Z,101999.03
2023-04-16T22:49:56.101Z,102008.13
2023-04-16T22:52:25.765Z,101995.06
2023-04-16T22:54:57.731Z,102004.84
2023-04-16T22:57:27.508Z,102002.56
2023-04-16T22:59:57.385Z,101996.13
2023-04-16T23:02:26.951Z,102002.16
2023-04-16T23:04:56.377Z,102001.31
2023-04-16T23:07:25.730Z,102004.59
2023-04-16T23:09:58.055Z,102002.78
2023-04-16T23:12:27.374Z,102004.63
2023-04-16T23:14:57.017Z,102006.53
2023-04-16T23:17:26.506Z,102010.63
2023-04-16T23:19:56.077Z,101994.47
2023-04-16T23:22:25.609Z,102002.75
2023-04-16T23:24:57.725Z,101995.25
2023-04-16T23:27:27.130Z,101997.34
2023-04-16T23:29:56.609Z,102005.81
2023-04-16T23:32:26.039Z,102002.56
2023-04-16T23:34:55.460Z,102009.38
2023-04-16T23:37:24.803Z,102004.19
2023-04-16T23:39:56.978Z,102005.44
2023-04-16T23:42:26.382Z,102006.88
2023-04-16T23:45:02.803Z,101998.59
2023-04-16T23:47:32.292Z,102005.41
2023-04-16T23:50:02.073Z,102004.56
2023-04-16T23:52:31.425Z,102010.16
2023-04-16T23:55:03.384Z,102007.66
2023-04-16T23:57:35.288Z,102006.03
